createdAt,value
2019-03-28T00:00:11.420Z,23.45
2019-03-28T00:02:41.004Z,25.00
2019-03-28T00:05:10.730Z,17.50
2019-03-28T00:07:40.259Z,26.80
2019-03-28T00:10:10.350Z,32.25
2019-03-28T00:12:40.192Z,40.50
2019-03-28T00:15:10.085Z,44.85
2019-03-28T00:17:39.568Z,30.27
2019-03-28T00:20:10.075Z,69.55
2019-03-28T00:22:41.323Z,68.30
2019-03-28T00:25:12.995Z,82.12
2019-03-28T00:27:42.522Z,55.67
2019-03-28T00:30:12.169Z,37.58
2019-03-28T00:32:41.665Z,52.38
2019-03-28T00:35:11.543Z,45.15
2019-03-28T00:37:41.049Z,35.88
2019-03-28T00:40:10.861Z,31.65
2019-03-28T00:42:40.444Z,32.90
2019-03-28T00:45:10.285Z,37.42
2019-03-28T00:47:39.833Z,29.87
2019-03-28T00:50:09.876Z,28.38
2019-03-28T00:52:39.455Z,26.12
2019-03-28T00:55:09.454Z,29.92
2019-03-28T00:57:38.987Z,22.75
2019-03-28T01:00:09.041Z,19.55
2019-03-28T01:02:38.534Z,33.75
2019-03-28T01:05:08.295Z,21.15
2019-03-28T01:07:37.806Z,21.60
2019-03-28T01:10:07.848Z,110.03
2019-03-28T01:12:37.361Z,105.70
2019-03-28T01:15:09.439Z,78.35
2019-03-28T01:17:39.041Z,32.55
2019-03-28T01:20:09.225Z,29.63
2019-03-28T01:22:38.747Z,21.52
2019-03-28T01:25:08.580Z,90.12
2019-03-28T01:27:38.070Z,93.27
2019-03-28T01:30:09.063Z,66.95
2019-03-28T01:32:38.579Z,55.15
2019-03-28T01:35:08.322Z,33.65
2019-03-28T01:37:37.815Z,23.55
2019-03-28T01:40:08.245Z,18.65
2019-03-28T01:42:37.722Z,24.52
2019-03-28T01:45:08.478Z,23.67
2019-03-28T01:47:38.065Z,30.72
2019-03-28T01:50:08.488Z,29.57
2019-03-28T01:52:38.048Z,25.62
2019-03-28T01:55:08.675Z,35.40
2019-03-28T01:57:38.907Z,43.33
2019-03-28T02:00:12.318Z,56.90
2019-03-28T02:02:42.057Z,42.08
2019-03-28T02:05:11.821Z,34.18
2019-03-28T02:07:41.405Z,36.55
2019-03-28T02:10:11.252Z,30.68
2019-03-28T02:12:40.867Z,19.45
2019-03-28T02:15:11.116Z,17.27
2019-03-28T02:17:40.803Z,23.18
2019-03-28T02:20:11.625Z,18.37
2019-03-28T02:22:41.276Z,14.18
2019-03-28T02:25:11.140Z,18.23
2019-03-28T02:27:40.736Z,16.77
2019-03-28T02:30:10.944Z,14.93
2019-03-28T02:32:40.449Z,15.08
2019-03-28T02:35:10.273Z,14.45
2019-03-28T02:37:39.769Z,16.85
2019-03-28T02:40:09.516Z,13.62
2019-03-28T02:42:39.075Z,16.55
2019-03-28T02:45:09.323Z,18.55
2019-03-28T02:47:38.827Z,16.32
2019-03-28T02:50:08.658Z,11.50
2019-03-28T02:52:38.232Z,16.07
2019-03-28T02:55:08.528Z,14.33
2019-03-28T02:57:41.787Z,14.65
2019-03-28T03:00:10.426Z,15.55
2019-03-28T03:02:39.928Z,19.95
2019-03-28T03:05:10.248Z,13.40
2019-03-28T03:07:39.993Z,14.58
2019-03-28T03:10:09.827Z,17.00
2019-03-28T03:12:39.350Z,17.70
2019-03-28T03:15:10.165Z,16.40
2019-03-28T03:17:39.710Z,11.50
2019-03-28T03:20:10.036Z,16.20
2019-03-28T03:22:39.589Z,16.20
2019-03-28T03:25:09.928Z,17.92
2019-03-28T03:27:55.977Z,16.85
2019-03-28T03:30:12.943Z,14.90
2019-03-28T03:32:42.768Z,16.87
2019-03-28T03:35:12.820Z,21.97
2019-03-28T03:37:42.459Z,13.95
2019-03-28T03:40:12.377Z,15.28
2019-03-28T03:42:42.021Z,15.15
2019-03-28T03:45:11.750Z,16.35
2019-03-28T03:47:41.403Z,15.53
2019-03-28T03:50:12.688Z,15.00
2019-03-28T03:52:42.193Z,15.00
2019-03-28T03:55:11.749Z,14.98
2019-03-28T03:57:41.242Z,14.98
2019-03-28T04:00:11.196Z,19.57
2019-03-28T04:02:40.686Z,18.12
2019-03-28T04:05:10.339Z,16.17
2019-03-28T04:07:39.822Z,13.03
2019-03-28T04:10:09.587Z,17.15
2019-03-28T04:12:39.070Z,17.00
2019-03-28T04:15:08.819Z,20.60
2019-03-28T04:17:38.311Z,19.25
2019-03-28T04:20:08.546Z,17.35
2019-03-28T04:22:38.023Z,18.55
2019-03-28T04:25:07.849Z,16.32
2019-03-28T04:27:37.345Z,16.87
2019-03-28T04:30:08.918Z,23.75
2019-03-28T04:32:38.411Z,16.42
2019-03-28T04:35:08.261Z,16.97
2019-03-28T04:37:37.779Z,19.27
2019-03-28T04:40:09.181Z,12.55
2019-03-28T04:42:38.667Z,16.05
2019-03-28T04:45:09.094Z,16.60
2019-03-28T04:47:38.656Z,18.90
2019-03-28T04:50:08.667Z,16.15
2019-03-28T04:52:38.243Z,18.27
2019-03-28T04:55:08.366Z,14.83
2019-03-28T04:57:40.892Z,13.75
2019-03-28T05:00:11.072Z,20.40
2019-03-28T05:02:40.641Z,14.93
2019-03-28T05:05:10.486Z,15.20
2019-03-28T05:07:40.048Z,16.20
2019-03-28T05:10:11.051Z,18.85
2019-03-28T05:12:40.637Z,15.28
2019-03-28T05:15:11.247Z,18.98
2019-03-28T05:17:40.846Z,16.10
2019-03-28T05:20:13.248Z,17.12
2019-03-28T05:22:42.423Z,20.97
2019-03-28T05:25:12.071Z,21.52
2019-03-28T05:27:41.573Z,14.38
2019-03-28T05:30:12.676Z,18.20
2019-03-28T05:32:42.183Z,25.02
2019-03-28T05:35:12.630Z,17.77
2019-03-28T05:37:42.106Z,17.67
2019-03-28T05:40:11.858Z,22.55
2019-03-28T05:42:41.409Z,16.77
2019-03-28T05:45:11.908Z,16.73
2019-03-28T05:47:41.583Z,18.17
2019-03-28T05:50:11.394Z,21.82
2019-03-28T05:52:40.879Z,17.23
2019-03-28T05:55:10.649Z,19.52
2019-03-28T05:57:40.151Z,23.25
2019-03-28T06:00:10.384Z,20.17
2019-03-28T06:02:40.543Z,20.70
2019-03-28T06:05:10.142Z,23.12
2019-03-28T06:07:39.689Z,17.27
2019-03-28T06:10:10.365Z,20.68
2019-03-28T06:12:40.025Z,20.40
2019-03-28T06:15:10.059Z,32.67
2019-03-28T06:17:39.682Z,27.50
2019-03-28T06:20:10.816Z,24.77
2019-03-28T06:22:40.336Z,19.05
2019-03-28T06:25:10.060Z,19.98
2019-03-28T06:27:39.547Z,21.62
2019-03-28T06:30:11.239Z,17.92
2019-03-28T06:32:43.180Z,21.52
2019-03-28T06:35:12.043Z,20.48
2019-03-28T06:37:41.551Z,22.42
2019-03-28T06:40:11.286Z,18.80
2019-03-28T06:42:40.859Z,21.55
2019-03-28T06:45:10.825Z,21.33
2019-03-28T06:47:40.372Z,22.32
2019-03-28T06:50:10.490Z,19.07
2019-03-28T06:52:40.238Z,27.45
2019-03-28T06:55:10.290Z,21.97
2019-03-28T06:57:39.763Z,24.92
2019-03-28T07:00:11.388Z,30.25
2019-03-28T07:02:41.047Z,23.52
2019-03-28T07:05:11.467Z,19.27
2019-03-28T07:07:40.999Z,23.40
2019-03-28T07:10:11.419Z,22.95
2019-03-28T07:12:40.937Z,24.95
2019-03-28T07:15:11.262Z,26.25
2019-03-28T07:17:40.779Z,22.58
2019-03-28T07:20:11.987Z,25.17
2019-03-28T07:22:41.495Z,24.52
2019-03-28T07:25:11.168Z,20.30
2019-03-28T07:27:40.651Z,25.72
2019-03-28T07:30:13.078Z,25.10
2019-03-28T07:32:43.754Z,26.87
2019-03-28T07:35:13.709Z,29.52
2019-03-28T07:37:44.539Z,26.65
2019-03-28T07:40:15.784Z,30.43
2019-03-28T07:42:45.269Z,26.90
2019-03-28T07:45:15.218Z,25.70
2019-03-28T07:47:44.876Z,26.70
2019-03-28T07:53:16.032Z,20.97
2019-03-28T07:56:23.878Z,28.43
2019-03-28T07:59:12.740Z,25.93
2019-03-28T08:02:01.599Z,25.67
2019-03-28T08:04:43.093Z,22.07
2019-03-28T08:07:44.362Z,27.83
2019-03-28T08:10:22.575Z,25.73
2019-03-28T08:13:11.415Z,24.07
2019-03-28T08:16:00.265Z,23.00
2019-03-28T08:18:49.177Z,25.93
2019-03-28T08:21:38.036Z,21.53
2019-03-28T08:24:26.857Z,30.53
2019-03-28T08:27:15.702Z,23.80
2019-03-28T08:30:25.448Z,24.17
2019-03-28T08:33:14.301Z,24.57
2019-03-28T08:36:03.196Z,27.67
2019-03-28T08:38:52.205Z,22.43
2019-03-28T08:41:41.116Z,20.03
2019-03-28T08:44:29.949Z,24.57
2019-03-28T08:47:18.839Z,22.70
2019-03-28T08:53:36.046Z,23.60
2019-03-28T08:56:24.900Z,20.33
2019-03-28T08:59:13.804Z,27.83
2019-03-28T09:04:56.860Z,33.03
2019-03-28T09:07:45.707Z,23.30
2019-03-28T09:10:34.619Z,28.80
2019-03-28T09:13:23.467Z,22.70
2019-03-28T09:16:12.336Z,27.77
2019-03-28T09:19:01.162Z,27.50
2019-03-28T09:21:50.005Z,23.77
2019-03-28T09:24:38.837Z,24.90
2019-03-28T09:27:27.728Z,23.93
2019-03-28T09:30:48.177Z,27.93
2019-03-28T09:33:47.091Z,25.43
2019-03-28T09:36:16.604Z,21.80
2019-03-28T09:39:26.376Z,27.33
2019-03-28T09:42:15.207Z,26.47
2019-03-28T09:45:24.939Z,31.50
2019-03-28T09:48:13.802Z,26.40
2019-03-28T09:51:02.628Z,29.37
2019-03-28T09:53:51.486Z,28.00
2019-03-28T09:56:40.390Z,27.33
2019-03-28T09:59:29.252Z,29.37
2019-03-28T10:02:18.093Z,25.83
2019-03-28T10:05:00.566Z,27.37
2019-03-28T10:07:49.350Z,23.43
2019-03-28T10:10:38.205Z,26.90
2019-03-28T10:13:27.101Z,34.53
2019-03-28T10:16:16.053Z,28.93
2019-03-28T10:19:04.957Z,30.63
2019-03-28T10:21:53.834Z,29.67
2019-03-28T10:24:42.738Z,30.07
2019-03-28T10:27:31.590Z,31.80
2019-03-28T10:30:41.303Z,28.87
2019-03-28T10:33:30.146Z,27.03
2019-03-28T10:36:19.005Z,24.30
2019-03-28T10:42:23.575Z,24.10
2019-03-28T10:45:12.499Z,23.90
2019-03-28T10:48:01.309Z,29.63
2019-03-28T10:50:50.297Z,30.60
2019-03-28T10:53:39.146Z,27.20
2019-03-28T10:56:27.983Z,24.90
2019-03-28T10:59:23.567Z,27.43
2019-03-28T11:02:07.556Z,28.23
2019-03-28T11:04:49.219Z,22.43
2019-03-28T11:07:38.094Z,22.30
2019-03-28T11:10:30.371Z,28.23
2019-03-28T11:13:17.552Z,26.10
2019-03-28T11:16:06.380Z,23.77
2019-03-28T11:18:55.241Z,21.27
2019-03-28T11:21:44.086Z,22.17
2019-03-28T11:24:32.943Z,21.80
2019-03-28T11:27:21.824Z,22.30
2019-03-28T11:33:39.127Z,21.90
2019-03-28T11:36:28.029Z,24.83
2019-03-28T11:39:16.840Z,18.30
2019-03-28T11:42:05.769Z,18.37
2019-03-28T11:44:54.634Z,21.30
2019-03-28T11:47:43.453Z,21.97
2019-03-28T11:50:32.382Z,16.10
2019-03-28T11:53:21.213Z,21.60
2019-03-28T11:56:10.058Z,16.93
2019-03-28T11:58:58.959Z,16.40
2019-03-28T12:01:59.407Z,15.23
2019-03-28T12:04:31.598Z,15.87
2019-03-28T12:07:01.179Z,18.83
2019-03-28T12:09:50.011Z,18.30
2019-03-28T12:12:38.869Z,14.07
2019-03-28T12:15:27.694Z,15.30
2019-03-28T12:18:16.546Z,19.93
2019-03-28T12:21:05.380Z,13.73
2019-03-28T12:23:54.205Z,16.33
2019-03-28T12:26:43.131Z,17.83
2019-03-28T12:29:35.558Z,20.73
2019-03-28T12:32:22.612Z,17.50
2019-03-28T12:35:11.617Z,17.13
2019-03-28T12:38:00.438Z,19.07
2019-03-28T12:40:49.311Z,17.63
2019-03-28T12:43:38.160Z,16.17
2019-03-28T12:46:26.980Z,17.63
2019-03-28T12:49:15.843Z,22.00
2019-03-28T12:52:04.720Z,17.63
2019-03-28T12:54:54.698Z,18.17
2019-03-28T12:57:44.123Z,17.00
2019-03-28T13:00:52.373Z,17.03
2019-03-28T13:03:45.745Z,16.87
2019-03-28T13:06:24.944Z,14.30
2019-03-28T13:09:13.890Z,17.83
2019-03-28T13:12:02.730Z,18.33
2019-03-28T13:14:51.671Z,17.43
2019-03-28T13:17:40.577Z,15.93
2019-03-28T13:20:29.516Z,19.23
2019-03-28T13:23:18.357Z,21.20
2019-03-28T13:26:07.231Z,11.83
2019-03-28T13:28:56.203Z,15.90
2019-03-28T13:31:45.120Z,24.40
2019-03-28T13:34:33.956Z,20.73
2019-03-28T13:37:22.824Z,15.50
2019-03-28T13:40:11.791Z,17.20
2019-03-28T13:43:00.675Z,16.23
2019-03-28T13:45:49.525Z,16.73
2019-03-28T13:48:38.444Z,15.67
2019-03-28T13:51:27.284Z,20.77
2019-03-28T13:54:16.133Z,19.57
2019-03-28T13:57:04.973Z,15.20
2019-03-28T13:59:53.954Z,19.90
2019-03-28T14:02:54.856Z,20.07
2019-03-28T14:05:25.962Z,19.80
2019-03-28T14:08:14.823Z,27.47
2019-03-28T14:11:03.668Z,20.73
2019-03-28T14:13:52.565Z,23.30
2019-03-28T14:16:41.423Z,20.40
2019-03-28T14:19:30.256Z,21.87
2019-03-28T14:25:14.762Z,23.40
2019-03-28T14:28:03.668Z,18.70
2019-03-28T14:30:52.541Z,22.67
2019-03-28T14:33:41.452Z,21.03
2019-03-28T14:36:30.286Z,23.97
2019-03-28T14:39:19.117Z,21.37
2019-03-28T14:42:07.957Z,24.60
2019-03-28T14:44:56.836Z,26.10
2019-03-28T14:47:45.666Z,28.70
2019-03-28T14:53:49.967Z,24.13
2019-03-28T14:56:39.069Z,25.97
2019-03-28T15:02:56.177Z,25.07
2019-03-28T15:05:38.178Z,32.90
2019-03-28T15:08:27.017Z,26.10
2019-03-28T15:11:15.873Z,26.90
2019-03-28T15:14:04.759Z,26.60
2019-03-28T15:16:53.576Z,30.80
2019-03-28T15:19:42.454Z,27.80
2019-03-28T15:22:31.294Z,29.90
2019-03-28T15:25:20.224Z,23.40
2019-03-28T15:28:09.047Z,28.73
2019-03-28T15:30:57.892Z,29.30
2019-03-28T15:33:46.770Z,23.10
2019-03-28T15:36:35.630Z,27.90
2019-03-28T15:39:24.501Z,28.20
2019-03-28T15:42:13.342Z,36.10
2019-03-28T15:45:02.400Z,31.63
2019-03-28T15:47:52.164Z,24.57
2019-03-28T15:50:41.873Z,21.60
2019-03-28T15:53:30.710Z,28.53
2019-03-28T15:56:19.632Z,27.10
2019-03-28T15:59:08.544Z,26.43
2019-03-28T16:01:59.938Z,27.40
2019-03-28T16:04:48.047Z,31.67
2019-03-28T16:07:36.974Z,24.60
2019-03-28T16:10:25.785Z,26.30
2019-03-28T16:13:14.715Z,26.20
2019-03-28T16:16:03.613Z,30.50
2019-03-28T16:18:52.469Z,28.40
2019-03-28T16:21:41.311Z,28.83
2019-03-28T16:24:30.256Z,28.20
2019-03-28T16:27:19.107Z,30.30
2019-03-28T16:30:28.823Z,27.53
2019-03-28T16:33:17.673Z,28.40
2019-03-28T16:36:06.592Z,35.40
2019-03-28T16:38:55.450Z,31.70
2019-03-28T16:41:44.358Z,30.43
2019-03-28T16:44:33.204Z,29.50
2019-03-28T16:47:22.044Z,28.93
2019-03-28T16:50:11.062Z,27.17
2019-03-28T16:52:59.903Z,27.80
2019-03-28T16:55:48.797Z,29.83
2019-03-28T16:58:37.685Z,25.57
2019-03-28T17:01:26.620Z,28.00
2019-03-28T17:04:21.045Z,23.87
2019-03-28T17:07:00.590Z,29.60
2019-03-28T17:09:50.400Z,26.43
2019-03-28T17:12:31.916Z,27.80
2019-03-28T17:15:20.759Z,31.30
2019-03-28T17:18:09.668Z,27.83
2019-03-28T17:20:58.573Z,32.90
2019-03-28T17:23:47.433Z,23.20
2019-03-28T17:26:36.402Z,29.50
2019-03-28T17:29:25.286Z,29.10
2019-03-28T17:32:14.165Z,31.83
2019-03-28T17:35:03.785Z,35.17
2019-03-28T17:37:53.675Z,29.27
2019-03-28T17:40:42.579Z,31.50
2019-03-28T17:43:31.701Z,26.30
2019-03-28T17:46:20.559Z,28.17
2019-03-28T17:49:09.476Z,28.17
2019-03-28T17:51:58.331Z,30.07
2019-03-28T17:54:47.202Z,36.27
2019-03-28T17:57:36.057Z,29.30
2019-03-28T18:00:44.446Z,31.50
2019-03-28T18:03:33.298Z,33.60
2019-03-28T18:06:15.009Z,30.50
2019-03-28T18:12:19.112Z,25.57
2019-03-28T18:15:08.112Z,31.43
2019-03-28T18:17:56.945Z,34.37
2019-03-28T18:20:45.813Z,47.47
2019-03-28T18:23:34.638Z,28.20
2019-03-28T18:26:23.782Z,21.20
2019-03-28T18:29:12.657Z,21.63
2019-03-28T18:32:01.554Z,23.57
2019-03-28T18:35:04.612Z,26.00
2019-03-28T18:38:00.205Z,23.87
2019-03-28T18:40:49.301Z,25.20
2019-03-28T18:43:38.184Z,21.70
2019-03-28T18:46:27.121Z,20.73
2019-03-28T18:49:15.972Z,22.97
2019-03-28T18:52:07.393Z,33.73
2019-03-28T18:54:55.473Z,24.03
2019-03-28T18:57:44.375Z,26.57
2019-03-28T19:00:33.296Z,24.13
2019-03-28T19:03:22.259Z,23.47
2019-03-28T19:06:04.475Z,28.43
2019-03-28T19:08:53.816Z,25.23
2019-03-28T19:11:43.937Z,23.10
2019-03-28T19:14:32.794Z,27.53
2019-03-28T19:17:21.731Z,22.33
2019-03-28T19:20:10.774Z,24.73
2019-03-28T19:22:59.681Z,24.20
2019-03-28T19:25:48.542Z,20.97
2019-03-28T19:28:37.437Z,27.17
2019-03-28T19:31:26.308Z,29.93
2019-03-28T19:34:15.185Z,22.50
2019-03-28T19:37:04.091Z,25.80
2019-03-28T19:39:52.952Z,27.40
2019-03-28T19:42:41.810Z,24.60
2019-03-28T19:45:50.056Z,27.50
2019-03-28T19:48:38.992Z,22.40
2019-03-28T19:51:47.837Z,23.32
2019-03-28T19:54:37.675Z,25.82
2019-03-28T19:57:26.546Z,28.12
2019-03-28T20:00:15.534Z,27.07
2019-03-28T20:03:04.532Z,22.75
2019-03-28T20:05:53.443Z,25.55
2019-03-28T20:08:34.935Z,27.00
2019-03-28T20:11:23.917Z,22.58
2019-03-28T20:14:14.340Z,30.80
2019-03-28T20:17:03.231Z,32.67
2019-03-28T20:19:52.110Z,24.23
2019-03-28T20:22:40.984Z,29.15
2019-03-28T20:25:29.850Z,21.73
2019-03-28T20:28:18.790Z,27.90
2019-03-28T20:31:07.752Z,31.93
2019-03-28T20:33:56.608Z,30.92
2019-03-28T20:36:45.441Z,28.62
2019-03-28T20:39:34.384Z,28.45
2019-03-28T20:42:23.237Z,29.52
2019-03-28T20:48:27.226Z,27.42
2019-03-28T20:51:16.067Z,26.35
2019-03-28T20:54:07.755Z,28.35
2019-03-28T20:56:57.850Z,27.90
2019-03-28T20:59:46.837Z,30.27
2019-03-28T21:02:36.945Z,28.15
2019-03-28T21:05:25.774Z,29.35
2019-03-28T21:08:08.133Z,31.62
2019-03-28T21:10:56.982Z,30.30
2019-03-28T21:13:45.819Z,35.95
2019-03-28T21:16:34.661Z,30.27
2019-03-28T21:19:23.521Z,28.05
2019-03-28T21:22:12.368Z,28.17
2019-03-28T21:25:01.259Z,29.35
2019-03-28T21:27:50.208Z,46.15
2019-03-28T21:33:33.304Z,42.08
2019-03-28T21:36:29.719Z,37.60
2019-03-28T21:39:12.731Z,29.10
2019-03-28T21:42:01.583Z,31.12
2019-03-28T21:44:50.526Z,31.75
2019-03-28T21:47:39.362Z,33.48
2019-03-28T21:50:28.214Z,68.28
2019-03-28T21:53:19.800Z,42.00
2019-03-28T21:56:07.606Z,32.38
2019-03-28T21:58:56.892Z,35.45
2019-03-28T22:01:47.049Z,35.35
2019-03-28T22:04:35.923Z,38.73
2019-03-28T22:07:18.031Z,34.70
2019-03-28T22:10:27.755Z,42.88
2019-03-28T22:13:16.580Z,35.45
2019-03-28T22:16:07.688Z,32.78
2019-03-28T22:18:56.071Z,33.25
2019-03-28T22:21:44.928Z,32.63
2019-03-28T22:24:33.762Z,47.90
2019-03-28T22:27:22.637Z,44.90
2019-03-28T22:33:39.855Z,38.70
2019-03-28T22:36:28.673Z,33.92
2019-03-28T22:39:17.558Z,28.27
2019-03-28T22:42:06.401Z,28.75
2019-03-28T22:44:55.238Z,34.53
2019-03-28T22:47:24.761Z,28.35
2019-03-28T22:50:13.788Z,28.98
2019-03-28T22:53:02.633Z,30.62
2019-03-28T22:55:51.456Z,29.00
2019-03-28T22:58:40.323Z,32.30
2019-03-28T23:01:29.311Z,31.10
2019-03-28T23:04:37.319Z,33.42
2019-03-28T23:07:19.098Z,29.42
2019-03-28T23:10:27.970Z,30.40
2019-03-28T23:13:16.826Z,31.42
2019-03-28T23:16:24.913Z,31.77
2019-03-28T23:19:13.747Z,30.32
2019-03-28T23:22:02.604Z,30.27
2019-03-28T23:24:51.434Z,31.97
2019-03-28T23:27:40.295Z,28.73
2019-03-28T23:30:29.131Z,31.70
2019-03-28T23:33:17.988Z,33.00
2019-03-28T23:36:06.998Z,32.93
2019-03-28T23:38:57.388Z,29.57
2019-03-28T23:41:46.203Z,36.03
2019-03-28T23:44:35.044Z,33.90
2019-03-28T23:47:23.883Z,29.02
2019-03-28T23:50:12.794Z,33.20
2019-03-28T23:53:01.702Z,35.70
2019-03-28T23:55:50.544Z,52.70
2019-03-28T23:58:39.369Z,48.00
